Time;durP1;ratioP1;P1;durP2;ratioP2;P2;SDS_P1;SDS_P2;PMS_P1;PMS_P2;Temp;Humidity;BMP_temperature;BMP_pressure;BME280_temperature;BME280_humidity;BME280_pressure;Samples;Min_cycle;Max_cycle;Signal;HPM_P1;HPM_P2
2024/04/09 00:01:42;;;;;;;9.60;3.05;;;;;;;19.18;36.02;99885.41;5308053;27;20006;-80
2024/04/09 00:04:10;;;;;;;7.15;2.60;;;;;;;19.18;35.74;99881.78;5306883;26;20042;-80
2024/04/09 00:06:40;;;;;;;7.85;2.90;;;;;;;19.16;35.94;99895.84;5301681;27;20017;-80
2024/04/09 00:09:11;;;;;;;11.18;2.95;;;;;;;19.14;35.56;99895.19;5301155;26;20017;-81
2024/04/09 00:11:43;;;;;;;8.05;2.83;;;;;;;19.15;35.53;99887.72;5306915;26;20021;-80
2024/04/09 00:14:14;;;;;;;9.73;2.90;;;;;;;19.15;35.01;99893.28;5307353;26;20045;-80
2024/04/09 00:16:44;;;;;;;8.45;2.78;;;;;;;19.12;35.03;99902.91;5302778;27;20024;-80
2024/04/09 00:19:13;;;;;;;9.35;2.80;;;;;;;19.14;34.66;99891.56;5307693;26;20006;-80
2024/04/09 00:21:44;;;;;;;11.55;3.15;;;;;;;19.12;34.76;99891.81;5311161;26;20469;-80
2024/04/09 00:24:12;;;;;;;7.60;2.60;;;;;;;19.14;34.57;99909.06;5308077;26;20025;-80
2024/04/09 00:26:42;;;;;;;8.20;3.00;;;;;;;19.14;34.68;99917.38;5303286;26;20009;-80
2024/04/09 00:29:10;;;;;;;8.68;2.80;;;;;;;19.15;34.51;99907.16;5308556;26;20101;-80
2024/04/09 00:31:42;;;;;;;7.43;3.03;;;;;;;19.17;33.87;99916.13;5308696;27;20005;-80
2024/04/09 00:34:10;;;;;;;6.80;2.45;;;;;;;19.14;34.59;99916.53;5307970;27;20016;-80
2024/04/09 00:36:40;;;;;;;10.45;2.72;;;;;;;19.15;34.26;99919.09;5296175;27;20379;-80
2024/04/09 00:39:19;;;;;;;7.05;2.72;;;;;;;19.16;34.23;99934.69;5308161;26;20014;-81
2024/04/09 00:41:50;;;;;;;8.43;2.65;;;;;;;19.16;34.00;99928.28;5309115;26;20462;-80
2024/04/09 00:44:17;;;;;;;7.47;2.45;;;;;;;19.19;34.43;99923.16;5307330;26;20715;-82
2024/04/09 00:46:51;;;;;;;7.03;2.20;;;;;;;19.21;34.78;99921.03;5309120;27;20006;-80
2024/04/09 00:49:19;;;;;;;6.55;2.92;;;;;;;19.18;34.76;99913.13;5308793;26;20026;-80
2024/04/09 00:51:52;;;;;;;8.63;2.33;;;;;;;19.21;35.02;99925.78;5308944;26;20014;-80
2024/04/09 00:54:19;;;;;;;9.23;2.45;;;;;;;19.16;35.00;99929.13;5294825;26;20009;-80
2024/04/09 00:56:51;;;;;;;6.15;2.55;;;;;;;19.18;35.38;99948.34;5308265;26;20010;-80
2024/04/09 00:59:21;;;;;;;9.18;2.58;;;;;;;19.14;35.10;99939.56;5324820;26;20018;-81
2024/04/09 01:01:54;;;;;;;7.53;2.38;;;;;;;19.18;35.27;99940.03;5329781;26;20009;-81
2024/04/09 01:04:22;;;;;;;7.30;2.42;;;;;;;19.13;35.52;99943.41;5307723;27;20005;-80
2024/04/09 01:06:52;;;;;;;5.55;2.45;;;;;;;19.13;35.32;99960.06;5310036;26;20022;-82
2024/04/09 01:09:20;;;;;;;7.40;2.50;;;;;;;19.13;35.54;99967.56;5309570;26;20053;-80
2024/04/09 01:11:50;;;;;;;5.90;2.20;;;;;;;19.09;35.58;99971.78;5307487;26;20060;-80
2024/04/09 01:14:17;;;;;;;6.85;2.50;;;;;;;19.07;35.55;99972.00;5301661;26;20011;-81
2024/04/09 01:16:47;;;;;;;6.95;2.50;;;;;;;19.05;35.53;99978.84;5301937;27;20017;-81
2024/04/09 01:19:17;;;;;;;8.40;2.67;;;;;;;19.04;36.03;99978.00;5309614;26;20016;-80
2024/04/09 01:21:47;;;;;;;8.45;2.67;;;;;;;19.01;35.59;99988.63;5307444;27;20021;-80
2024/04/09 01:24:17;;;;;;;7.18;2.63;;;;;;;19.00;35.85;99993.31;5310563;26;20002;-80
2024/04/09 01:26:49;;;;;;;8.68;2.28;;;;;;;18.97;35.71;99995.66;5307542;26;20017;-80
2024/04/09 01:29:16;;;;;;;9.63;2.60;;;;;;;18.92;36.13;100006.53;5311753;26;20010;-81
2024/04/09 01:31:46;;;;;;;8.57;2.97;;;;;;;18.90;36.13;99999.28;5308552;26;20160;-82
2024/04/09 01:34:13;;;;;;;7.03;2.20;;;;;;;18.87;35.73;100002.50;5318807;26;20005;-81
2024/04/09 01:36:43;;;;;;;7.78;2.65;;;;;;;18.85;36.66;100012.06;5309180;26;20092;-81
2024/04/09 01:39:10;;;;;;;7.43;2.60;;;;;;;18.81;36.86;100002.44;5318714;26;20060;-81
2024/04/09 01:41:42;;;;;;;8.15;2.50;;;;;;;18.80;36.51;99993.25;5311717;26;20005;-82
2024/04/09 01:44:09;;;;;;;7.85;3.60;;;;;;;18.73;36.59;99995.16;5312437;26;20103;-81
2024/04/09 01:46:39;;;;;;;8.32;2.75;;;;;;;18.70;36.95;99990.06;5327109;26;20017;-80
2024/04/09 01:49:08;;;;;;;7.97;3.00;;;;;;;18.69;37.02;100002.22;5310377;26;20014;-81
2024/04/09 01:51:38;;;;;;;8.32;2.55;;;;;;;18.66;36.83;100002.63;5315316;26;20017;-81
2024/04/09 01:54:05;;;;;;;6.90;2.35;;;;;;;18.65;37.32;100000.91;5312798;26;20010;-82
2024/04/09 01:56:35;;;;;;;6.70;2.65;;;;;;;18.61;37.26;99980.22;5308493;27;20091;-80
2024/04/09 01:59:05;;;;;;;5.88;2.53;;;;;;;18.60;37.68;99992.38;5299189;27;20013;-80
2024/04/09 02:01:35;;;;;;;8.68;2.20;;;;;;;18.56;37.13;99993.84;5296077;26;20336;-81
2024/04/09 02:04:03;;;;;;;8.60;3.20;;;;;;;18.56;37.51;100004.91;5309797;26;20018;-81
2024/04/09 02:06:33;;;;;;;7.53;2.70;;;;;;;18.55;37.57;100013.47;5301519;26;20014;-80
2024/04/09 02:09:00;;;;;;;5.90;2.30;;;;;;;18.52;37.32;100015.56;5292885;27;20006;-81
2024/04/09 02:11:31;;;;;;;6.15;2.42;;;;;;;18.51;37.45;100007.47;5308647;26;20006;-81
2024/04/09 02:13:59;;;;;;;6.68;2.55;;;;;;;18.49;37.63;100010.44;5309753;27;20017;-81
2024/04/09 02:16:32;;;;;;;5.63;2.65;;;;;;;18.48;37.49;100014.25;5307427;26;20025;-80
2024/04/09 02:19:02;;;;;;;5.50;2.67;;;;;;;18.45;37.53;100013.81;5308415;26;20006;-82
2024/04/09 02:21:32;;;;;;;7.13;2.30;;;;;;;18.45;37.86;100016.56;5314817;27;20009;-81
2024/04/09 02:24:00;;;;;;;7.00;2.13;;;;;;;18.44;37.98;100012.09;5312002;27;20006;-81
2024/04/09 02:26:31;;;;;;;5.82;2.65;;;;;;;18.42;37.98;100025.28;5309600;26;20017;-81
2024/04/09 02:29:00;;;;;;;5.78;2.17;;;;;;;18.44;37.88;100037.03;5312519;27;20024;-81
2024/04/09 02:31:32;;;;;;;8.63;2.30;;;;;;;18.43;38.34;100035.31;5312432;26;20002;-81
2024/04/09 02:33:59;;;;;;;8.80;2.33;;;;;;;18.35;37.76;100033.56;5311676;26;20045;-82
2024/04/09 02:36:29;;;;;;;7.82;2.10;;;;;;;18.37;38.18;100048.09;5309440;27;20018;-81
2024/04/09 02:38:57;;;;;;;6.65;2.28;;;;;;;18.38;38.55;100046.16;5312969;26;20076;-81
2024/04/09 02:41:27;;;;;;;5.95;2.10;;;;;;;18.37;38.05;100056.41;5312052;26;20494;-81
2024/04/09 02:43:54;;;;;;;6.47;2.28;;;;;;;18.36;38.17;100045.50;5309966;26;20009;-80
2024/04/09 02:46:24;;;;;;;6.47;2.70;;;;;;;18.33;38.10;100035.69;5307651;26;20025;-81
2024/04/09 02:48:53;;;;;;;4.88;2.03;;;;;;;18.37;38.48;100050.00;5310205;26;20009;-81
2024/04/09 02:51:24;;;;;;;6.97;1.85;;;;;;;18.32;38.26;100052.50;5310603;27;20009;-82
2024/04/09 02:53:51;;;;;;;6.05;2.08;;;;;;;18.32;38.40;100063.59;5311710;26;20347;-82
2024/04/09 02:56:21;;;;;;;5.85;2.20;;;;;;;18.31;38.26;100071.03;5307045;26;20056;-81
2024/04/09 02:58:48;;;;;;;6.38;2.53;;;;;;;18.31;38.42;100061.88;5302325;27;20006;-81
2024/04/09 03:01:18;;;;;;;5.78;2.13;;;;;;;18.29;38.42;100062.09;5312803;26;20025;-82
2024/04/09 03:03:45;;;;;;;4.97;2.08;;;;;;;18.29;38.46;100069.56;5307960;27;20084;-83
2024/04/09 03:06:19;;;;;;;6.22;2.10;;;;;;;18.30;38.66;100074.91;5315718;27;20016;-83
2024/04/09 03:08:46;;;;;;;7.97;1.92;;;;;;;18.27;38.53;100091.91;5320824;26;20006;-82
2024/04/09 03:11:16;;;;;;;7.03;2.53;;;;;;;18.27;38.58;100094.69;5317350;26;20022;-82
2024/04/09 03:13:46;;;;;;;7.57;2.40;;;;;;;18.26;38.62;100111.50;5307930;27;20010;-83
2024/04/09 03:16:17;;;;;;;6.70;2.85;;;;;;;18.26;38.68;100128.97;5319811;26;20005;-83
2024/04/09 03:18:44;;;;;;;7.78;2.47;;;;;;;18.24;38.71;100139.38;5318393;26;20149;-83
2024/04/09 03:21:17;;;;;;;6.45;2.40;;;;;;;18.22;38.99;100141.53;5319843;26;20003;-83
2024/04/09 03:23:44;;;;;;;5.00;2.15;;;;;;;18.19;38.99;100144.69;5316721;26;20064;-82
2024/04/09 03:26:15;;;;;;;5.55;2.00;;;;;;;18.20;38.88;100142.78;5319641;26;20005;-82
2024/04/09 03:28:42;;;;;;;4.68;2.20;;;;;;;18.17;39.18;100141.25;5314923;27;20024;-82
2024/04/09 03:31:12;;;;;;;5.97;2.50;;;;;;;18.18;38.83;100165.13;5317049;26;20044;-82
2024/04/09 03:33:40;;;;;;;7.90;2.50;;;;;;;18.13;39.21;100156.59;5312989;26;20006;-82
2024/04/09 03:36:11;;;;;;;7.07;2.33;;;;;;;18.14;39.16;100158.28;5312840;26;20013;-81
2024/04/09 03:38:44;;;;;;;8.35;2.70;;;;;;;18.14;39.45;100177.69;5315563;27;20576;-82
2024/04/09 03:41:14;;;;;;;7.90;2.50;;;;;;;18.08;39.25;100173.78;5316305;26;20001;-82
2024/04/09 03:43:41;;;;;;;6.60;2.45;;;;;;;18.09;39.29;100164.41;5314513;27;20020;-83
2024/04/09 03:46:13;;;;;;;9.00;2.50;;;;;;;18.11;39.17;100165.09;5308267;26;20005;-82
2024/04/09 03:48:41;;;;;;;8.32;2.30;;;;;;;18.11;39.40;100180.84;5308791;26;20002;-82
2024/04/09 03:51:12;;;;;;;6.07;2.15;;;;;;;18.09;39.24;100183.81;5281120;26;20010;-83
2024/04/09 03:53:42;;;;;;;5.47;2.53;;;;;;;18.07;39.41;100174.84;5306197;27;20341;-80
2024/04/09 03:56:11;;;;;;;6.53;2.35;;;;;;;18.06;39.48;100167.56;5300173;26;20017;-82
2024/04/09 03:58:40;;;;;;;6.93;2.35;;;;;;;18.07;39.34;100171.19;5309707;27;20013;-80
2024/04/09 04:01:13;;;;;;;7.15;2.60;;;;;;;18.06;39.57;100158.44;5297793;26;20017;-83
2024/04/09 04:03:56;;;;;;;7.13;2.80;;;;;;;18.07;40.13;100144.38;5295830;26;20135;-83
2024/04/09 04:06:53;;;;;;;6.93;2.50;;;;;;;18.04;40.72;100117.09;5305792;27;20051;-82
2024/04/09 04:09:28;;;;;;;5.75;2.25;;;;;;;18.06;40.20;100119.69;5298765;26;20017;-82
2024/04/09 04:11:58;;;;;;;7.22;2.45;;;;;;;18.00;39.74;100132.38;5309481;26;20013;-80
2024/04/09 04:14:25;;;;;;;5.30;2.20;;;;;;;18.02;40.48;100135.81;5304926;26;20012;-82
2024/04/09 04:16:54;;;;;;;5.07;2.15;;;;;;;18.03;40.17;100136.69;5306803;26;20494;-80
2024/04/09 04:19:22;;;;;;;7.10;2.50;;;;;;;18.01;40.01;100125.81;5308318;26;20355;-82
2024/04/09 04:21:51;;;;;;;7.07;2.60;;;;;;;18.00;40.19;100114.91;5307574;26;20021;-82
2024/04/09 04:24:18;;;;;;;5.53;2.22;;;;;;;17.98;40.25;100123.41;5307831;26;20386;-81
2024/04/09 04:26:54;;;;;;;5.15;2.33;;;;;;;18.01;40.39;100124.94;5306596;26;20540;-80
2024/04/09 04:29:21;;;;;;;5.22;1.80;;;;;;;17.96;39.95;100133.00;5307766;26;20684;-81
2024/04/09 04:31:52;;;;;;;4.50;1.52;;;;;;;17.95;40.38;100131.28;5306903;27;20010;-81
2024/04/09 04:34:19;;;;;;;4.47;1.52;;;;;;;17.92;40.05;100123.38;5305251;26;20006;-80
2024/04/09 04:36:49;;;;;;;4.90;1.50;;;;;;;17.90;39.89;100131.88;5300770;27;20006;-80
2024/04/09 04:39:16;;;;;;;5.22;1.27;;;;;;;17.87;39.71;100156.34;5305427;26;20691;-79
2024/04/09 04:41:46;;;;;;;2.53;1.20;;;;;;;17.86;39.94;100185.94;5310752;26;20003;-81
2024/04/09 04:44:16;;;;;;;3.92;1.20;;;;;;;17.85;40.30;100214.66;5310354;26;20016;-81
2024/04/09 04:46:45;;;;;;;3.10;1.15;;;;;;;17.80;40.29;100216.31;5307718;26;20362;-81
2024/04/09 04:49:12;;;;;;;3.33;1.15;;;;;;;17.77;40.42;100226.72;5307032;26;20017;-80
2024/04/09 04:51:42;;;;;;;2.40;1.13;;;;;;;17.73;40.31;100236.44;5305762;26;20462;-81
2024/04/09 04:54:10;;;;;;;5.05;1.20;;;;;;;17.71;40.49;100243.25;5302630;26;20470;-82
2024/04/09 04:56:42;;;;;;;4.65;1.27;;;;;;;17.70;40.62;100241.53;5305789;26;20005;-81
2024/04/09 04:59:09;;;;;;;4.18;1.45;;;;;;;17.66;40.65;100235.50;5304531;26;20006;-81
2024/04/09 05:01:41;;;;;;;3.05;1.17;;;;;;;17.70;40.72;100247.06;5309233;26;20013;-79
2024/04/09 05:04:08;;;;;;;3.33;1.30;;;;;;;17.63;40.46;100246.97;5311653;26;20005;-79
2024/04/09 05:06:38;;;;;;;2.80;1.10;;;;;;;17.63;40.56;100246.13;5308541;26;20358;-80
2024/04/09 05:09:07;;;;;;;3.72;1.23;;;;;;;17.63;40.49;100257.19;5313826;26;20020;-80
2024/04/09 05:11:37;;;;;;;2.67;0.90;;;;;;;17.61;40.62;100256.53;5310171;26;20010;-81
2024/04/09 05:14:05;;;;;;;1.77;0.90;;;;;;;17.60;40.55;100252.03;5307351;26;20002;-83
2024/04/09 05:16:34;;;;;;;1.73;0.90;;;;;;;17.57;40.28;100253.28;5310214;26;20005;-83
2024/04/09 05:19:04;;;;;;;2.30;1.00;;;;;;;17.58;41.04;100268.81;5306738;26;20049;-79
2024/04/09 05:21:35;;;;;;;2.20;0.77;;;;;;;17.53;40.85;100271.34;5311130;26;20002;-81
2024/04/09 05:24:02;;;;;;;2.60;0.85;;;;;;;17.53;41.09;100278.78;5308981;26;20020;-83
2024/04/09 05:26:33;;;;;;;2.95;1.10;;;;;;;17.51;41.08;100292.78;5308600;26;20122;-81
2024/04/09 05:29:00;;;;;;;3.97;1.20;;;;;;;17.48;41.25;100284.03;5337688;26;20068;-82
2024/04/09 05:31:30;;;;;;;3.20;0.90;;;;;;;17.47;41.22;100274.03;5307240;26;20057;-83
2024/04/09 05:33:57;;;;;;;2.42;0.90;;;;;;;17.44;41.61;100264.19;5309777;26;20076;-82
2024/04/09 05:36:32;;;;;;;2.97;1.00;;;;;;;17.46;41.68;100269.53;5306861;26;20469;-80
2024/04/09 05:38:59;;;;;;;3.17;1.02;;;;;;;17.43;41.76;100284.59;5309624;26;20016;-83
2024/04/09 05:41:29;;;;;;;4.15;1.00;;;;;;;17.41;41.27;100286.69;5302822;26;20459;-82
2024/04/09 05:43:57;;;;;;;2.22;0.80;;;;;;;17.38;41.78;100276.03;5305099;27;20419;-81
2024/04/09 05:46:27;;;;;;;1.67;0.82;;;;;;;17.40;41.48;100276.72;5302040;26;20010;-83
2024/04/09 05:48:54;;;;;;;3.05;0.77;;;;;;;17.36;41.84;100284.53;5304838;26;20009;-83
2024/04/09 05:51:24;;;;;;;2.53;0.77;;;;;;;17.37;41.73;100289.00;5307552;26;20007;-83
2024/04/09 05:53:54;;;;;;;1.33;0.77;;;;;;;17.38;41.94;100276.03;5308350;27;20041;-82
2024/04/09 05:56:24;;;;;;;3.50;1.02;;;;;;;17.33;41.81;100270.22;5303740;27;20502;-83
2024/04/09 05:58:52;;;;;;;3.28;1.08;;;;;;;17.33;41.54;100273.84;5306509;27;20445;-83
2024/04/09 06:01:22;;;;;;;3.05;1.00;;;;;;;17.33;41.55;100290.44;5303203;27;20010;-82
2024/04/09 06:03:49;;;;;;;3.17;0.90;;;;;;;17.30;41.43;100293.59;5296654;26;20419;-82
2024/04/09 06:06:21;;;;;;;2.10;0.80;;;;;;;17.31;41.38;100305.53;5305512;26;20024;-83
2024/04/09 06:08:49;;;;;;;1.48;0.90;;;;;;;17.23;41.37;100314.78;5307750;27;20021;-83
2024/04/09 06:11:21;;;;;;;1.23;0.70;;;;;;;17.25;41.29;100320.94;5311461;26;20010;-82
2024/04/09 06:13:52;;;;;;;1.92;0.80;;;;;;;17.18;41.21;100313.63;5309340;27;20010;-83
2024/04/09 06:16:22;;;;;;;2.50;0.70;;;;;;;17.12;40.97;100325.44;5308611;26;20030;-84
2024/04/09 06:18:50;;;;;;;1.88;0.93;;;;;;;17.09;40.94;100323.03;5301695;26;20014;-82
2024/04/09 06:21:20;;;;;;;1.38;0.68;;;;;;;17.00;40.90;100316.75;5308723;26;20034;-82
2024/04/09 06:23:47;;;;;;;1.58;0.63;;;;;;;16.95;40.79;100314.53;5304680;26;20006;-83
2024/04/09 06:26:20;;;;;;;1.00;0.63;;;;;;;16.86;40.92;100312.91;5307511;26;20021;-82
2024/04/09 06:28:51;;;;;;;1.08;0.52;;;;;;;16.82;41.17;100313.47;5308306;27;20005;-82
2024/04/09 06:31:21;;;;;;;1.42;0.80;;;;;;;16.75;41.39;100309.72;5307072;26;20021;-82
2024/04/09 06:33:49;;;;;;;2.35;1.00;;;;;;;16.66;41.38;100311.69;5305314;27;20055;-83
2024/04/09 06:36:19;;;;;;;2.67;1.00;;;;;;;16.63;41.31;100336.97;5309426;26;20017;-82
2024/04/09 06:38:53;;;;;;;3.38;1.00;;;;;;;16.57;41.53;100351.53;5309630;26;20010;-82
2024/04/09 06:41:23;;;;;;;1.83;0.75;;;;;;;16.52;41.64;100365.03;5311276;26;20005;-84
2024/04/09 06:43:53;;;;;;;1.88;0.80;;;;;;;16.52;41.52;100370.53;5310611;26;20441;-83
2024/04/09 06:46:23;;;;;;;1.92;0.80;;;;;;;16.45;41.11;100372.34;5313898;26;20054;-83
2024/04/09 06:48:53;;;;;;;2.33;1.10;;;;;;;16.40;40.72;100372.91;5300367;27;20006;-82
2024/04/09 06:51:24;;;;;;;1.75;0.55;;;;;;;16.35;40.74;100374.47;5314236;26;20086;-83
2024/04/09 06:53:51;;;;;;;1.17;0.80;;;;;;;16.27;40.56;100372.63;5314647;26;20018;-82
2024/04/09 06:56:21;;;;;;;1.30;0.70;;;;;;;16.22;40.63;100381.47;5310921;26;20006;-82
2024/04/09 06:58:48;;;;;;;1.83;0.65;;;;;;;16.17;40.54;100394.09;5314911;26;20018;-82
2024/04/09 07:01:20;;;;;;;1.77;0.70;;;;;;;16.14;40.97;100408.25;5317373;26;20020;-83
2024/04/09 07:03:48;;;;;;;1.40;0.70;;;;;;;16.04;40.95;100419.50;5321200;26;20014;-82
2024/04/09 07:06:18;;;;;;;0.80;0.70;;;;;;;16.04;40.82;100418.66;5317027;26;20016;-83
2024/04/09 07:08:45;;;;;;;2.30;0.80;;;;;;;16.02;40.99;100426.25;5316866;26;20006;-82
2024/04/09 07:11:15;;;;;;;2.33;0.75;;;;;;;15.97;40.60;100418.50;5312947;26;20020;-83
2024/04/09 07:13:42;;;;;;;2.75;0.70;;;;;;;15.95;40.70;100420.59;5318409;26;20005;-82
2024/04/09 07:16:12;;;;;;;0.73;0.60;;;;;;;15.95;40.74;100430.75;5305170;26;20088;-82
2024/04/09 07:18:42;;;;;;;0.98;0.70;;;;;;;15.95;40.72;100448.19;5315017;26;20016;-82
2024/04/09 07:21:12;;;;;;;1.70;0.80;;;;;;;15.93;40.79;100463.19;5310656;26;20010;-82
2024/04/09 07:23:39;;;;;;;1.95;0.70;;;;;;;15.91;40.62;100479.97;5312617;26;20057;-82
2024/04/09 07:26:09;;;;;;;1.00;0.70;;;;;;;15.88;40.56;100472.03;5301227;27;20006;-83
2024/04/09 07:28:36;;;;;;;1.23;0.70;;;;;;;15.89;40.41;100482.88;5313042;26;20109;-83
2024/04/09 07:31:07;;;;;;;1.88;0.85;;;;;;;15.87;40.06;100484.09;5311698;27;20405;-83
2024/04/09 07:33:34;;;;;;;1.65;0.70;;;;;;;15.85;40.08;100481.50;5312720;26;20009;-82
2024/04/09 07:36:07;;;;;;;1.98;0.70;;;;;;;15.85;40.21;100488.94;5316104;26;20353;-82
2024/04/09 07:38:37;;;;;;;2.25;0.80;;;;;;;15.81;40.16;100499.47;5326908;26;20005;-83
2024/04/09 07:41:07;;;;;;;1.33;0.57;;;;;;;15.82;40.55;100519.66;5315660;27;20002;-82
2024/04/09 07:43:34;;;;;;;2.40;0.70;;;;;;;15.79;40.24;100520.00;5319697;26;20013;-83
2024/04/09 07:46:07;;;;;;;1.67;0.70;;;;;;;15.81;40.27;100518.78;5311724;26;20480;-83
2024/04/09 07:48:34;;;;;;;3.05;0.75;;;;;;;15.81;40.28;100518.78;5313370;26;20472;-82
2024/04/09 07:51:07;;;;;;;2.47;0.90;;;;;;;15.82;40.10;100517.75;5311088;27;20002;-82
2024/04/09 07:53:35;;;;;;;1.60;0.70;;;;;;;15.79;40.38;100515.34;5316030;26;20034;-82
2024/04/09 07:56:08;;;;;;;2.85;0.75;;;;;;;15.81;40.30;100518.78;5323486;26;20030;-82
2024/04/09 07:58:35;;;;;;;1.15;0.63;;;;;;;15.79;40.00;100515.34;5322905;26;20435;-82
2024/04/09 08:01:05;;;;;;;2.50;0.90;;;;;;;15.84;39.81;100512.03;5320899;26;20029;-83
2024/04/09 08:03:33;;;;;;;1.73;0.60;;;;;;;15.83;39.66;100505.69;5314292;26;20009;-82
2024/04/09 08:06:03;;;;;;;2.28;0.77;;;;;;;15.81;39.69;100499.47;5307554;27;20340;-81
2024/04/09 08:08:34;;;;;;;1.05;0.50;;;;;;;15.83;39.45;100511.19;5306343;26;20018;-82
2024/04/09 08:11:10;;;;;;;1.77;0.68;;;;;;;15.82;39.38;100506.72;5311673;27;20041;-81
2024/04/09 08:13:37;;;;;;;2.72;0.68;;;;;;;15.82;39.01;100494.81;5309635;26;20013;-82
2024/04/09 08:16:08;;;;;;;0.82;0.50;;;;;;;15.83;39.03;100510.34;5321616;26;20529;-82
2024/04/09 08:18:35;;;;;;;1.92;0.68;;;;;;;15.80;38.38;100508.78;5311290;26;20469;-81
2024/04/09 08:21:06;;;;;;;1.90;0.70;;;;;;;15.79;38.31;100508.97;5314275;26;20482;-81
2024/04/09 08:23:37;;;;;;;0.63;0.55;;;;;;;15.79;37.78;100515.34;5302917;26;20009;-81
2024/04/09 08:26:08;;;;;;;1.55;0.80;;;;;;;15.74;38.33;100526.06;5309305;27;20013;-82
2024/04/09 08:28:37;;;;;;;1.92;0.80;;;;;;;15.73;38.43;100546.41;5313201;26;20001;-82
2024/04/09 08:31:11;;;;;;;1.98;0.60;;;;;;;15.72;38.38;100547.44;5336302;26;20010;-82
2024/04/09 08:33:39;;;;;;;2.10;0.60;;;;;;;15.68;38.52;100534.16;5317582;26;20708;-82
2024/04/09 08:36:09;;;;;;;1.75;0.60;;;;;;;15.67;38.16;100522.25;5309674;27;20001;-82
2024/04/09 08:38:39;;;;;;;1.75;0.75;;;;;;;15.71;38.30;100514.50;5324963;26;20009;-82
2024/04/09 08:41:10;;;;;;;2.45;0.68;;;;;;;15.69;38.41;100522.94;5312480;26;20006;-81
2024/04/09 08:43:38;;;;;;;1.52;0.68;;;;;;;15.67;38.09;100538.81;5310383;26;20021;-82
2024/04/09 08:46:08;;;;;;;2.05;0.73;;;;;;;15.70;38.50;100562.44;5310132;26;20001;-81
2024/04/09 08:48:37;;;;;;;1.88;0.60;;;;;;;15.71;37.92;100587.09;5307887;26;20006;-82
2024/04/09 08:51:08;;;;;;;2.10;0.70;;;;;;;15.69;38.33;100600.19;5310892;26;20009;-82
2024/04/09 08:53:41;;;;;;;1.50;0.70;;;;;;;15.73;38.00;100620.91;5312834;26;20016;-82
2024/04/09 08:56:10;;;;;;;1.90;0.82;;;;;;;15.70;37.69;100610.19;5312204;27;20017;-82
2024/04/09 08:58:38;;;;;;;2.67;0.80;;;;;;;15.71;37.72;100613.81;5308641;27;20011;-82
2024/04/09 09:01:07;;;;;;;1.52;0.57;;;;;;;15.70;37.56;100620.38;5315930;27;20006;-82
2024/04/09 09:03:34;;;;;;;3.05;0.73;;;;;;;15.70;37.39;100617.59;5315758;26;20009;-82
2024/04/09 09:06:06;;;;;;;5.18;0.90;;;;;;;15.70;37.00;100620.38;5317043;26;20006;-82
2024/04/09 09:08:43;;;;;;;2.30;0.73;;;;;;;15.73;36.55;100620.03;5316569;26;20009;-82
2024/04/09 09:11:13;;;;;;;1.67;0.68;;;;;;;15.67;36.63;100629.00;5297681;26;20009;-82
2024/04/09 09:13:40;;;;;;;3.35;0.85;;;;;;;15.66;36.64;100643.84;5310876;27;20032;-81
2024/04/09 09:16:10;;;;;;;1.05;0.60;;;;;;;15.65;36.36;100651.25;5322340;26;20005;-81
2024/04/09 09:18:41;;;;;;;1.50;0.70;;;;;;;15.62;36.27;100656.22;5309048;26;20080;-82
2024/04/09 09:21:11;;;;;;;2.42;0.80;;;;;;;15.58;36.06;100652.97;5310355;26;20057;-82
2024/04/09 09:23:38;;;;;;;1.45;0.60;;;;;;;15.57;35.73;100656.75;5310472;26;20017;-82
2024/04/09 09:26:11;;;;;;;1.50;0.80;;;;;;;15.57;35.70;100659.53;5306951;27;20013;-83
2024/04/09 09:28:38;;;;;;;2.47;0.70;;;;;;;15.52;36.23;100664.66;5312769;26;20014;-82
2024/04/09 09:31:09;;;;;;;1.13;0.52;;;;;;;15.48;35.97;100693.66;5313147;26;20002;-82
2024/04/09 09:33:40;;;;;;;1.58;0.68;;;;;;;15.48;35.90;100700.03;5308943;27;20006;-82
2024/04/09 09:36:13;;;;;;;4.10;0.70;;;;;;;15.44;35.99;100697.75;5314359;26;20446;-81
2024/04/09 09:38:41;;;;;;;2.00;0.65;;;;;;;15.42;35.88;100695.16;5305219;26;20006;-82
2024/04/09 09:41:14;;;;;;;1.90;0.70;;;;;;;15.46;35.69;100687.44;5308338;26;20009;-81
2024/04/09 09:43:43;;;;;;;2.42;0.70;;;;;;;15.41;35.69;100687.94;5311669;26;20021;-82
2024/04/09 09:46:16;;;;;;;2.50;0.70;;;;;;;15.45;35.75;100677.44;5311835;26;20017;-81
2024/04/09 09:48:44;;;;;;;2.55;0.77;;;;;;;15.40;35.70;100677.09;5318252;26;20017;-81
2024/04/09 09:51:15;;;;;;;0.98;0.60;;;;;;;15.40;35.49;100677.94;5326590;26;20006;-81
2024/04/09 09:53:42;;;;;;;2.63;1.10;;;;;;;15.42;35.48;100678.63;5321589;27;20002;-82
2024/04/09 09:56:17;;;;;;;2.13;0.73;;;;;;;15.45;35.09;100669.16;5315135;26;20006;-82
2024/04/09 09:58:44;;;;;;;1.48;0.65;;;;;;;15.46;35.63;100659.84;5314335;27;20014;-82
2024/04/09 10:01:15;;;;;;;2.90;0.70;;;;;;;15.49;35.91;100676.06;5302580;26;20022;-82
2024/04/09 10:03:45;;;;;;;1.90;0.57;;;;;;;15.52;35.73;100660.03;5297047;26;20024;-81
2024/04/09 10:06:16;;;;;;;2.42;0.55;;;;;;;15.60;35.54;100656.41;5312183;27;20024;-82
2024/04/09 10:08:47;;;;;;;2.22;0.73;;;;;;;15.64;35.68;100643.13;5313905;26;20037;-82
2024/04/09 10:11:23;;;;;;;2.35;0.70;;;;;;;15.77;34.71;100655.38;5312306;26;20006;-82
2024/04/09 10:13:51;;;;;;;2.55;0.70;;;;;;;15.81;35.21;100653.13;5311801;27;20006;-83
2024/04/09 10:16:25;;;;;;;2.38;0.70;;;;;;;15.88;35.29;100634.84;5311310;27;20080;-82
2024/04/09 10:18:54;;;;;;;1.27;0.55;;;;;;;15.94;35.38;100649.84;5322781;26;20014;-82
2024/04/09 10:21:30;;;;;;;2.75;0.80;;;;;;;16.06;34.28;100659.50;5311467;26;20016;-82
2024/04/09 10:23:59;;;;;;;2.92;0.88;;;;;;;16.11;35.17;100673.63;5312097;26;20006;-82
2024/04/09 10:26:31;;;;;;;2.35;0.93;;;;;;;16.18;34.21;100681.06;5313859;26;20083;-81
2024/04/09 10:29:02;;;;;;;2.55;0.70;;;;;;;16.22;34.17;100682.44;5311354;26;20416;-82
2024/04/09 10:31:34;;;;;;;3.33;0.80;;;;;;;16.25;34.59;100695.88;5315330;26;20002;-82
2024/04/09 10:34:02;;;;;;;1.67;0.77;;;;;;;16.28;34.63;100691.91;5317316;26;20006;-83
2024/04/09 10:36:34;;;;;;;2.15;0.80;;;;;;;16.33;34.32;100683.94;5310434;27;20017;-80
2024/04/09 10:39:03;;;;;;;2.30;0.75;;;;;;;16.36;33.97;100696.56;5342240;26;20028;-82
2024/04/09 10:41:37;;;;;;;1.45;0.60;;;;;;;16.40;33.44;100696.06;5313544;26;20009;-82
2024/04/09 10:44:04;;;;;;;1.52;0.60;;;;;;;16.38;34.16;100687.06;5307012;27;20022;-82
2024/04/09 10:46:34;;;;;;;3.38;0.90;;;;;;;16.41;33.75;100694.16;5312600;26;20006;-81
2024/04/09 10:49:03;;;;;;;2.88;0.80;;;;;;;16.41;33.95;100702.44;5310833;26;20002;-82
2024/04/09 10:51:33;;;;;;;2.35;0.93;;;;;;;16.40;33.87;100701.56;5313515;26;20010;-82
2024/04/09 10:54:01;;;;;;;1.17;0.60;;;;;;;16.39;33.79;100718.31;5323876;26;20017;-82
2024/04/09 10:56:35;;;;;;;2.30;0.80;;;;;;;16.37;33.93;100717.63;5311402;26;20040;-83
2024/04/09 10:59:13;;;;;;;2.67;0.82;;;;;;;16.40;33.18;100736.63;5311994;26;20005;-82
2024/04/09 11:01:44;;;;;;;2.95;0.82;;;;;;;16.36;33.89;100741.63;5310572;27;20009;-83
2024/04/09 11:04:12;;;;;;;3.15;1.10;;;;;;;16.32;33.59;100743.03;5317812;26;20002;-82
2024/04/09 11:06:43;;;;;;;2.72;0.90;;;;;;;16.33;33.22;100755.75;5312335;26;20010;-81
2024/04/09 11:09:17;;;;;;;2.28;1.00;;;;;;;16.32;32.45;100765.13;5311079;26;20019;-81
2024/04/09 11:11:48;;;;;;;2.95;0.80;;;;;;;16.25;32.47;100766.81;5316891;26;20396;-85
2024/04/09 11:15:03;;;;;;;2.20;0.75;;;;;;;16.23;31.87;100757.88;5301798;26;20005;-83
2024/04/09 11:17:48;;;;;;;2.90;0.80;;;;;;;16.20;31.96;100766.50;5336918;26;20495;-84
2024/04/09 11:20:18;;;;;;;1.83;0.60;;;;;;;16.19;32.93;100775.81;5330128;26;20057;-82
2024/04/09 11:22:50;;;;;;;1.83;0.60;;;;;;;16.19;32.53;100784.94;5315631;26;20008;-82
2024/04/09 11:25:19;;;;;;;2.70;0.95;;;;;;;16.18;32.81;100771.31;5311213;26;20005;-82
2024/04/09 11:27:53;;;;;;;2.00;0.77;;;;;;;16.19;32.67;100771.16;5317608;26;20014;-83
2024/04/09 11:30:26;;;;;;;2.53;0.80;;;;;;;16.19;32.06;100773.91;5311284;27;20017;-82
2024/04/09 11:32:59;;;;;;;3.53;0.98;;;;;;;16.20;32.42;100763.72;5312488;26;20438;-82
2024/04/09 11:35:26;;;;;;;2.67;0.90;;;;;;;16.20;32.52;100760.97;5314153;26;20016;-82
2024/04/09 11:37:57;;;;;;;3.13;0.73;;;;;;;16.23;32.29;100757.88;5315126;26;20006;-82
2024/04/09 11:40:27;;;;;;;2.40;0.90;;;;;;;16.20;31.96;100758.19;5316075;26;20006;-82